sensor_id;sensor_type;location;lat;lon;timestamp;temperature;humidity
4308;DHT22;2167;53.448;9.984;2022-11-15T00:00:40;5.60;33.80
4308;DHT22;2167;53.448;9.984;2022-11-15T00:03:06;5.70;34.10
4308;DHT22;2167;53.448;9.984;2022-11-15T00:05:34;5.70;34.40
4308;DHT22;2167;53.448;9.984;2022-11-15T00:08:01;5.70;34.70
4308;DHT22;2167;53.448;9.984;2022-11-15T00:10:26;5.90;35.10
4308;DHT22;2167;53.448;9.984;2022-11-15T00:12:52;5.90;35.00
4308;DHT22;2167;53.448;9.984;2022-11-15T00:15:18;6.00;35.10
4308;DHT22;2167;53.448;9.984;2022-11-15T00:17:43;6.10;35.40
4308;DHT22;2167;53.448;9.984;2022-11-15T00:20:09;6.00;34.60
4308;DHT22;2167;53.448;9.984;2022-11-15T00:22:36;6.20;34.70
4308;DHT22;2167;53.448;9.984;2022-11-15T00:25:02;6.20;34.50
4308;DHT22;2167;53.448;9.984;2022-11-15T00:27:28;6.20;34.80
4308;DHT22;2167;53.448;9.984;2022-11-15T00:29:54;6.20;34.80
4308;DHT22;2167;53.448;9.984;2022-11-15T00:32:19;6.20;35.00
4308;DHT22;2167;53.448;9.984;2022-11-15T00:34:45;6.30;35.20
4308;DHT22;2167;53.448;9.984;2022-11-15T00:37:10;6.30;35.30
4308;DHT22;2167;53.448;9.984;2022-11-15T00:39:36;6.40;35.10
4308;DHT22;2167;53.448;9.984;2022-11-15T00:42:02;6.40;35.00
4308;DHT22;2167;53.448;9.984;2022-11-15T00:44:27;6.50;34.90
4308;DHT22;2167;53.448;9.984;2022-11-15T00:46:53;6.50;34.50
4308;DHT22;2167;53.448;9.984;2022-11-15T00:49:19;6.50;34.30
4308;DHT22;2167;53.448;9.984;2022-11-15T00:51:44;6.60;34.20
4308;DHT22;2167;53.448;9.984;2022-11-15T00:54:10;6.60;34.00
4308;DHT22;2167;53.448;9.984;2022-11-15T00:56:35;6.50;33.50
4308;DHT22;2167;53.448;9.984;2022-11-15T00:59:01;6.50;33.40
4308;DHT22;2167;53.448;9.984;2022-11-15T01:01:26;6.60;33.30
4308;DHT22;2167;53.448;9.984;2022-11-15T01:03:52;6.60;32.80
4308;DHT22;2167;53.448;9.984;2022-11-15T01:06:18;6.50;32.30
4308;DHT22;2167;53.448;9.984;2022-11-15T01:08:43;6.50;32.00
4308;DHT22;2167;53.448;9.984;2022-11-15T01:11:11;6.40;31.40
4308;DHT22;2167;53.448;9.984;2022-11-15T01:13:38;6.30;31.00
4308;DHT22;2167;53.448;9.984;2022-11-15T01:16:09;6.20;30.40
4308;DHT22;2167;53.448;9.984;2022-11-15T01:18:36;6.20;30.10
4308;DHT22;2167;53.448;9.984;2022-11-15T01:21:07;6.10;30.00
4308;DHT22;2167;53.448;9.984;2022-11-15T01:23:33;6.10;29.40
4308;DHT22;2167;53.448;9.984;2022-11-15T01:26:00;6.00;28.80
4308;DHT22;2167;53.448;9.984;2022-11-15T01:28:30;6.00;27.90
4308;DHT22;2167;53.448;9.984;2022-11-15T01:31:01;5.90;27.10
4308;DHT22;2167;53.448;9.984;2022-11-15T01:33:29;5.80;26.70
4308;DHT22;2167;53.448;9.984;2022-11-15T01:35:55;5.70;26.30
4308;DHT22;2167;53.448;9.984;2022-11-15T01:38:22;5.70;25.70
4308;DHT22;2167;53.448;9.984;2022-11-15T01:40:48;5.60;25.70
4308;DHT22;2167;53.448;9.984;2022-11-15T01:43:25;5.60;26.20
4308;DHT22;2167;53.448;9.984;2022-11-15T01:45:58;5.50;26.40
4308;DHT22;2167;53.448;9.984;2022-11-15T01:48:32;5.40;26.00
4308;DHT22;2167;53.448;9.984;2022-11-15T01:51:01;5.30;25.10
4308;DHT22;2167;53.448;9.984;2022-11-15T01:53:29;5.20;24.80
4308;DHT22;2167;53.448;9.984;2022-11-15T01:55:57;5.20;25.50
4308;DHT22;2167;53.448;9.984;2022-11-15T01:58:23;5.20;25.60
4308;DHT22;2167;53.448;9.984;2022-11-15T02:00:49;5.10;24.70
4308;DHT22;2167;53.448;9.984;2022-11-15T02:03:16;5.00;24.20
4308;DHT22;2167;53.448;9.984;2022-11-15T02:05:42;4.90;24.80
4308;DHT22;2167;53.448;9.984;2022-11-15T02:08:09;4.90;24.50
4308;DHT22;2167;53.448;9.984;2022-11-15T02:10:48;4.80;24.20
4308;DHT22;2167;53.448;9.984;2022-11-15T02:13:15;4.80;23.90
4308;DHT22;2167;53.448;9.984;2022-11-15T02:15:56;4.70;23.60
4308;DHT22;2167;53.448;9.984;2022-11-15T02:18:34;4.70;23.40
4308;DHT22;2167;53.448;9.984;2022-11-15T02:21:28;4.60;23.50
4308;DHT22;2167;53.448;9.984;2022-11-15T02:24:03;4.50;23.80
4308;DHT22;2167;53.448;9.984;2022-11-15T02:26:48;4.40;24.60
4308;DHT22;2167;53.448;9.984;2022-11-15T02:32:14;4.40;26.60
4308;DHT22;2167;53.448;9.984;2022-11-15T02:35:11;4.50;27.50
4308;DHT22;2167;53.448;9.984;2022-11-15T02:38:16;4.50;27.90
4308;DHT22;2167;53.448;9.984;2022-11-15T02:40:53;4.50;27.60
4308;DHT22;2167;53.448;9.984;2022-11-15T02:43:47;4.40;26.50
4308;DHT22;2167;53.448;9.984;2022-11-15T02:46:36;4.40;25.90
4308;DHT22;2167;53.448;9.984;2022-11-15T02:49:21;4.40;26.10
4308;DHT22;2167;53.448;9.984;2022-11-15T02:51:49;4.30;26.20
4308;DHT22;2167;53.448;9.984;2022-11-15T02:54:22;4.30;26.70
4308;DHT22;2167;53.448;9.984;2022-11-15T02:56:48;4.30;26.80
4308;DHT22;2167;53.448;9.984;2022-11-15T03:05:01;4.20;25.70
4308;DHT22;2167;53.448;9.984;2022-11-15T03:18:57;4.10;27.20
4308;DHT22;2167;53.448;9.984;2022-11-15T03:21:25;4.20;27.50
4308;DHT22;2167;53.448;9.984;2022-11-15T03:23:54;4.20;27.00
4308;DHT22;2167;53.448;9.984;2022-11-15T03:26:23;4.10;26.30
4308;DHT22;2167;53.448;9.984;2022-11-15T03:29:00;4.10;25.80
4308;DHT22;2167;53.448;9.984;2022-11-15T03:31:32;4.00;26.20
4308;DHT22;2167;53.448;9.984;2022-11-15T03:34:34;4.00;26.40
4308;DHT22;2167;53.448;9.984;2022-11-15T03:37:01;3.90;26.20
4308;DHT22;2167;53.448;9.984;2022-11-15T03:39:27;3.90;26.50
4308;DHT22;2167;53.448;9.984;2022-11-15T03:44:58;3.90;26.60
4308;DHT22;2167;53.448;9.984;2022-11-15T03:50:19;3.80;27.10
4308;DHT22;2167;53.448;9.984;2022-11-15T03:52:46;3.80;26.40
4308;DHT22;2167;53.448;9.984;2022-11-15T03:55:15;3.80;26.30
4308;DHT22;2167;53.448;9.984;2022-11-15T03:57:41;3.80;26.80
4308;DHT22;2167;53.448;9.984;2022-11-15T04:00:08;3.80;27.40
4308;DHT22;2167;53.448;9.984;2022-11-15T04:02:33;3.80;27.50
4308;DHT22;2167;53.448;9.984;2022-11-15T04:04:59;3.90;28.10
4308;DHT22;2167;53.448;9.984;2022-11-15T04:07:24;3.90;28.10
4308;DHT22;2167;53.448;9.984;2022-11-15T04:09:50;3.90;28.50
4308;DHT22;2167;53.448;9.984;2022-11-15T04:12:31;4.00;28.70
4308;DHT22;2167;53.448;9.984;2022-11-15T04:14:58;4.00;28.30
4308;DHT22;2167;53.448;9.984;2022-11-15T04:20:12;4.00;28.50
4308;DHT22;2167;53.448;9.984;2022-11-15T04:22:57;4.00;29.40
4308;DHT22;2167;53.448;9.984;2022-11-15T04:25:42;4.10;29.60
4308;DHT22;2167;53.448;9.984;2022-11-15T04:28:08;4.10;29.90
4308;DHT22;2167;53.448;9.984;2022-11-15T04:30:33;4.20;30.20
4308;DHT22;2167;53.448;9.984;2022-11-15T04:32:59;4.30;30.10
4308;DHT22;2167;53.448;9.984;2022-11-15T04:35:25;4.30;29.80
4308;DHT22;2167;53.448;9.984;2022-11-15T04:37:50;4.30;29.70
4308;DHT22;2167;53.448;9.984;2022-11-15T04:40:16;4.40;30.00
4308;DHT22;2167;53.448;9.984;2022-11-15T04:42:42;4.40;30.50
4308;DHT22;2167;53.448;9.984;2022-11-15T04:45:08;4.40;30.90
4308;DHT22;2167;53.448;9.984;2022-11-15T04:47:34;4.50;31.50
4308;DHT22;2167;53.448;9.984;2022-11-15T04:49:59;4.60;31.90
4308;DHT22;2167;53.448;9.984;2022-11-15T04:52:25;4.70;32.20
4308;DHT22;2167;53.448;9.984;2022-11-15T04:54:50;4.80;32.20
4308;DHT22;2167;53.448;9.984;2022-11-15T04:57:16;4.90;32.20
4308;DHT22;2167;53.448;9.984;2022-11-15T04:59:42;4.90;32.20
4308;DHT22;2167;53.448;9.984;2022-11-15T05:02:07;5.00;32.20
4308;DHT22;2167;53.448;9.984;2022-11-15T05:04:33;5.00;32.20
4308;DHT22;2167;53.448;9.984;2022-11-15T05:06:58;5.10;32.40
4308;DHT22;2167;53.448;9.984;2022-11-15T05:09:24;5.20;32.60
4308;DHT22;2167;53.448;9.984;2022-11-15T05:11:49;5.30;33.00
4308;DHT22;2167;53.448;9.984;2022-11-15T05:14:15;5.40;33.30
4308;DHT22;2167;53.448;9.984;2022-11-15T05:16:42;5.50;33.60
4308;DHT22;2167;53.448;9.984;2022-11-15T05:19:07;5.50;33.70
4308;DHT22;2167;53.448;9.984;2022-11-15T05:21:34;5.60;34.40
4308;DHT22;2167;53.448;9.984;2022-11-15T05:24:00;5.60;34.00
4308;DHT22;2167;53.448;9.984;2022-11-15T05:26:26;5.70;34.10
4308;DHT22;2167;53.448;9.984;2022-11-15T05:28:55;5.70;34.40
4308;DHT22;2167;53.448;9.984;2022-11-15T05:31:22;5.70;34.50
4308;DHT22;2167;53.448;9.984;2022-11-15T05:33:49;5.90;34.60
4308;DHT22;2167;53.448;9.984;2022-11-15T05:36:27;5.90;34.60
4308;DHT22;2167;53.448;9.984;2022-11-15T05:38:54;5.90;34.60
4308;DHT22;2167;53.448;9.984;2022-11-15T05:41:25;5.90;34.50
4308;DHT22;2167;53.448;9.984;2022-11-15T05:43:52;6.00;34.40
4308;DHT22;2167;53.448;9.984;2022-11-15T05:46:19;6.00;34.30
4308;DHT22;2167;53.448;9.984;2022-11-15T05:48:48;6.00;34.20
4308;DHT22;2167;53.448;9.984;2022-11-15T05:51:15;6.10;34.20
4308;DHT22;2167;53.448;9.984;2022-11-15T05:53:43;6.10;34.30
4308;DHT22;2167;53.448;9.984;2022-11-15T05:56:09;6.20;34.00
4308;DHT22;2167;53.448;9.984;2022-11-15T05:58:36;6.20;33.80
4308;DHT22;2167;53.448;9.984;2022-11-15T06:01:02;6.20;33.80
4308;DHT22;2167;53.448;9.984;2022-11-15T06:03:28;6.30;33.80
4308;DHT22;2167;53.448;9.984;2022-11-15T06:05:54;6.30;33.70
4308;DHT22;2167;53.448;9.984;2022-11-15T06:08:19;6.30;34.50
4308;DHT22;2167;53.448;9.984;2022-11-15T06:10:45;6.40;33.80
4308;DHT22;2167;53.448;9.984;2022-11-15T06:13:11;6.40;33.80
4308;DHT22;2167;53.448;9.984;2022-11-15T06:15:36;6.40;34.00
4308;DHT22;2167;53.448;9.984;2022-11-15T06:18:02;6.40;34.10
4308;DHT22;2167;53.448;9.984;2022-11-15T06:20:29;6.40;34.30
4308;DHT22;2167;53.448;9.984;2022-11-15T06:22:58;6.50;34.20
4308;DHT22;2167;53.448;9.984;2022-11-15T06:25:24;6.60;34.50
4308;DHT22;2167;53.448;9.984;2022-11-15T06:27:54;6.60;34.50
4308;DHT22;2167;53.448;9.984;2022-11-15T06:30:20;6.60;34.50
4308;DHT22;2167;53.448;9.984;2022-11-15T06:32:46;6.60;34.70
4308;DHT22;2167;53.448;9.984;2022-11-15T06:35:12;6.60;34.90
4308;DHT22;2167;53.448;9.984;2022-11-15T06:37:38;6.70;35.00
4308;DHT22;2167;53.448;9.984;2022-11-15T06:40:03;6.70;35.20
4308;DHT22;2167;53.448;9.984;2022-11-15T06:42:29;6.70;35.70
4308;DHT22;2167;53.448;9.984;2022-11-15T06:44:55;6.70;35.00
4308;DHT22;2167;53.448;9.984;2022-11-15T06:47:23;6.70;35.10
4308;DHT22;2167;53.448;9.984;2022-11-15T06:49:49;6.70;35.30
4308;DHT22;2167;53.448;9.984;2022-11-15T06:52:14;6.80;35.50
4308;DHT22;2167;53.448;9.984;2022-11-15T06:54:40;6.80;35.40
4308;DHT22;2167;53.448;9.984;2022-11-15T06:57:05;6.80;35.40
4308;DHT22;2167;53.448;9.984;2022-11-15T06:59:31;6.80;35.50
4308;DHT22;2167;53.448;9.984;2022-11-15T07:01:56;6.80;35.90
4308;DHT22;2167;53.448;9.984;2022-11-15T07:04:24;6.90;35.40
4308;DHT22;2167;53.448;9.984;2022-11-15T07:06:50;6.90;35.10
4308;DHT22;2167;53.448;9.984;2022-11-15T07:09:15;6.90;35.30
4308;DHT22;2167;53.448;9.984;2022-11-15T07:11:41;6.90;35.40
4308;DHT22;2167;53.448;9.984;2022-11-15T07:14:06;6.90;35.40
4308;DHT22;2167;53.448;9.984;2022-11-15T07:16:32;6.90;35.50
4308;DHT22;2167;53.448;9.984;2022-11-15T07:18:58;6.90;35.40
4308;DHT22;2167;53.448;9.984;2022-11-15T07:21:23;6.90;35.40
4308;DHT22;2167;53.448;9.984;2022-11-15T07:23:49;7.00;35.40
4308;DHT22;2167;53.448;9.984;2022-11-15T07:26:15;7.00;35.40
4308;DHT22;2167;53.448;9.984;2022-11-15T07:28:40;7.10;35.30
4308;DHT22;2167;53.448;9.984;2022-11-15T07:31:08;7.10;35.30
4308;DHT22;2167;53.448;9.984;2022-11-15T07:33:34;7.10;35.20
4308;DHT22;2167;53.448;9.984;2022-11-15T07:36:00;7.10;34.80
4308;DHT22;2167;53.448;9.984;2022-11-15T07:38:30;7.10;35.00
4308;DHT22;2167;53.448;9.984;2022-11-15T07:40:57;7.10;35.30
4308;DHT22;2167;53.448;9.984;2022-11-15T07:43:23;7.20;35.20
4308;DHT22;2167;53.448;9.984;2022-11-15T07:45:48;7.20;35.40
4308;DHT22;2167;53.448;9.984;2022-11-15T07:48:14;7.20;35.20
4308;DHT22;2167;53.448;9.984;2022-11-15T07:50:43;7.30;35.30
4308;DHT22;2167;53.448;9.984;2022-11-15T07:53:09;7.30;35.30
4308;DHT22;2167;53.448;9.984;2022-11-15T07:55:35;7.30;35.30
4308;DHT22;2167;53.448;9.984;2022-11-15T07:58:03;7.30;35.50
4308;DHT22;2167;53.448;9.984;2022-11-15T08:00:29;7.40;35.60
4308;DHT22;2167;53.448;9.984;2022-11-15T08:03:06;7.40;35.50
4308;DHT22;2167;53.448;9.984;2022-11-15T08:05:33;7.40;35.50
4308;DHT22;2167;53.448;9.984;2022-11-15T08:07:59;7.50;35.30
4308;DHT22;2167;53.448;9.984;2022-11-15T08:10:25;7.50;35.10
4308;DHT22;2167;53.448;9.984;2022-11-15T08:13:05;7.50;35.00
4308;DHT22;2167;53.448;9.984;2022-11-15T08:15:32;7.60;34.70
4308;DHT22;2167;53.448;9.984;2022-11-15T08:18:02;7.50;34.70
4308;DHT22;2167;53.448;9.984;2022-11-15T08:20:29;7.60;35.10
4308;DHT22;2167;53.448;9.984;2022-11-15T08:22:59;7.60;34.70
4308;DHT22;2167;53.448;9.984;2022-11-15T08:25:27;7.50;35.50
4308;DHT22;2167;53.448;9.984;2022-11-15T08:28:01;7.50;34.80
4308;DHT22;2167;53.448;9.984;2022-11-15T08:30:27;7.60;34.70
4308;DHT22;2167;53.448;9.984;2022-11-15T08:32:54;7.50;34.80
4308;DHT22;2167;53.448;9.984;2022-11-15T08:35:21;7.50;34.80
4308;DHT22;2167;53.448;9.984;2022-11-15T08:37:47;7.50;35.00
4308;DHT22;2167;53.448;9.984;2022-11-15T08:40:13;7.60;35.00
4308;DHT22;2167;53.448;9.984;2022-11-15T08:42:39;7.60;35.20
4308;DHT22;2167;53.448;9.984;2022-11-15T08:45:05;7.60;35.30
4308;DHT22;2167;53.448;9.984;2022-11-15T08:47:31;7.50;35.60
4308;DHT22;2167;53.448;9.984;2022-11-15T08:49:56;7.60;35.90
4308;DHT22;2167;53.448;9.984;2022-11-15T08:52:22;7.70;36.30
4308;DHT22;2167;53.448;9.984;2022-11-15T08:54:48;7.70;36.60
4308;DHT22;2167;53.448;9.984;2022-11-15T08:57:15;7.90;37.40
4308;DHT22;2167;53.448;9.984;2022-11-15T08:59:40;8.00;37.60
4308;DHT22;2167;53.448;9.984;2022-11-15T09:02:06;8.10;37.80
4308;DHT22;2167;53.448;9.984;2022-11-15T09:04:31;8.10;37.80
4308;DHT22;2167;53.448;9.984;2022-11-15T09:06:57;8.20;37.90
4308;DHT22;2167;53.448;9.984;2022-11-15T09:09:23;8.30;37.80
4308;DHT22;2167;53.448;9.984;2022-11-15T09:11:49;8.30;37.50
4308;DHT22;2167;53.448;9.984;2022-11-15T09:14:16;8.30;37.20
4308;DHT22;2167;53.448;9.984;2022-11-15T09:16:41;8.30;37.20
4308;DHT22;2167;53.448;9.984;2022-11-15T09:19:07;8.40;37.40
4308;DHT22;2167;53.448;9.984;2022-11-15T09:21:32;8.50;37.70
4308;DHT22;2167;53.448;9.984;2022-11-15T09:23:58;8.60;37.40
4308;DHT22;2167;53.448;9.984;2022-11-15T09:26:24;8.70;37.20
4308;DHT22;2167;53.448;9.984;2022-11-15T09:28:50;8.70;37.30
4308;DHT22;2167;53.448;9.984;2022-11-15T09:31:15;8.80;37.20
4308;DHT22;2167;53.448;9.984;2022-11-15T09:33:53;8.80;36.80
4308;DHT22;2167;53.448;9.984;2022-11-15T09:36:20;8.90;36.30
4308;DHT22;2167;53.448;9.984;2022-11-15T09:38:45;8.90;36.10
4308;DHT22;2167;53.448;9.984;2022-11-15T09:43:46;8.90;35.20
4308;DHT22;2167;53.448;9.984;2022-11-15T09:48:49;8.90;35.50
4308;DHT22;2167;53.448;9.984;2022-11-15T09:51:30;9.00;35.90
4308;DHT22;2167;53.448;9.984;2022-11-15T09:56:30;9.10;36.60
4308;DHT22;2167;53.448;9.984;2022-11-15T09:59:01;9.20;36.60
4308;DHT22;2167;53.448;9.984;2022-11-15T10:04:23;9.30;35.70
4308;DHT22;2167;53.448;9.984;2022-11-15T10:07:01;9.30;35.50
4308;DHT22;2167;53.448;9.984;2022-11-15T10:09:35;9.40;35.90
4308;DHT22;2167;53.448;9.984;2022-11-15T10:12:03;9.40;35.90
4308;DHT22;2167;53.448;9.984;2022-11-15T10:14:30;9.40;35.90
4308;DHT22;2167;53.448;9.984;2022-11-15T10:17:31;9.60;36.30
4308;DHT22;2167;53.448;9.984;2022-11-15T10:20:07;9.70;36.20
4308;DHT22;2167;53.448;9.984;2022-11-15T10:22:45;9.70;35.20
4308;DHT22;2167;53.448;9.984;2022-11-15T10:25:25;9.70;34.30
4308;DHT22;2167;53.448;9.984;2022-11-15T10:28:21;9.80;34.20
4308;DHT22;2167;53.448;9.984;2022-11-15T10:30:50;9.80;34.60
4308;DHT22;2167;53.448;9.984;2022-11-15T10:33:33;9.90;35.00
4308;DHT22;2167;53.448;9.984;2022-11-15T10:41:35;10.10;35.00
4308;DHT22;2167;53.448;9.984;2022-11-15T10:46:37;10.30;34.80
4308;DHT22;2167;53.448;9.984;2022-11-15T10:49:18;10.30;35.40
4308;DHT22;2167;53.448;9.984;2022-11-15T10:51:53;10.40;35.20
4308;DHT22;2167;53.448;9.984;2022-11-15T10:56:55;10.50;35.40
4308;DHT22;2167;53.448;9.984;2022-11-15T10:59:27;10.60;35.00
4308;DHT22;2167;53.448;9.984;2022-11-15T11:01:53;10.70;35.10
4308;DHT22;2167;53.448;9.984;2022-11-15T11:04:19;10.60;34.70
4308;DHT22;2167;53.448;9.984;2022-11-15T11:06:56;10.70;35.00
4308;DHT22;2167;53.448;9.984;2022-11-15T11:09:35;10.80;34.80
4308;DHT22;2167;53.448;9.984;2022-11-15T11:12:02;10.80;34.50
4308;DHT22;2167;53.448;9.984;2022-11-15T11:14:34;10.80;34.00
4308;DHT22;2167;53.448;9.984;2022-11-15T11:17:16;10.90;33.80
4308;DHT22;2167;53.448;9.984;2022-11-15T11:22:53;10.90;32.80
4308;DHT22;2167;53.448;9.984;2022-11-15T11:25:39;10.90;32.50
4308;DHT22;2167;53.448;9.984;2022-11-15T11:28:33;11.00;32.60
4308;DHT22;2167;53.448;9.984;2022-11-15T11:34:15;11.00;33.20
4308;DHT22;2167;53.448;9.984;2022-11-15T11:39:53;11.00;33.30
4308;DHT22;2167;53.448;9.984;2022-11-15T11:47:53;11.00;31.20
4308;DHT22;2167;53.448;9.984;2022-11-15T11:50:26;11.00;30.50
4308;DHT22;2167;53.448;9.984;2022-11-15T11:55:45;11.00;31.10
4308;DHT22;2167;53.448;9.984;2022-11-15T11:58:26;11.00;31.60
4308;DHT22;2167;53.448;9.984;2022-11-15T12:00:57;11.10;31.60
4308;DHT22;2167;53.448;9.984;2022-11-15T12:03:36;11.20;30.80
4308;DHT22;2167;53.448;9.984;2022-11-15T12:08:58;11.30;30.30
4308;DHT22;2167;53.448;9.984;2022-11-15T12:11:33;11.30;29.20
4308;DHT22;2167;53.448;9.984;2022-11-15T12:14:04;11.40;28.90
4308;DHT22;2167;53.448;9.984;2022-11-15T12:16:32;11.40;29.10
4308;DHT22;2167;53.448;9.984;2022-11-15T12:19:03;11.50;29.40
4308;DHT22;2167;53.448;9.984;2022-11-15T12:21:50;11.50;29.10
4308;DHT22;2167;53.448;9.984;2022-11-15T12:24:37;11.60;29.00
4308;DHT22;2167;53.448;9.984;2022-11-15T12:27:20;11.60;29.00
4308;DHT22;2167;53.448;9.984;2022-11-15T12:30:04;11.70;28.80
4308;DHT22;2167;53.448;9.984;2022-11-15T12:32:37;11.70;28.30
4308;DHT22;2167;53.448;9.984;2022-11-15T12:35:20;11.80;28.50
4308;DHT22;2167;53.448;9.984;2022-11-15T12:37:52;11.90;28.10
4308;DHT22;2167;53.448;9.984;2022-11-15T12:40:25;11.90;27.60
4308;DHT22;2167;53.448;9.984;2022-11-15T12:43:02;12.00;27.60
4308;DHT22;2167;53.448;9.984;2022-11-15T12:45:39;12.00;27.60
4308;DHT22;2167;53.448;9.984;2022-11-15T13:06:50;12.30;26.70
4308;DHT22;2167;53.448;9.984;2022-11-15T13:12:02;12.30;26.50
4308;DHT22;2167;53.448;9.984;2022-11-15T13:14:50;12.30;26.70
4308;DHT22;2167;53.448;9.984;2022-11-15T13:19:46;12.20;26.80
4308;DHT22;2167;53.448;9.984;2022-11-15T13:22:12;12.10;27.40
4308;DHT22;2167;53.448;9.984;2022-11-15T13:24:56;12.10;27.80
4308;DHT22;2167;53.448;9.984;2022-11-15T13:27:23;12.20;27.90
4308;DHT22;2167;53.448;9.984;2022-11-15T13:29:48;12.10;28.10
4308;DHT22;2167;53.448;9.984;2022-11-15T13:32:17;12.20;28.40
4308;DHT22;2167;53.448;9.984;2022-11-15T13:34:45;12.10;28.80
4308;DHT22;2167;53.448;9.984;2022-11-15T13:37:32;12.20;28.90
4308;DHT22;2167;53.448;9.984;2022-11-15T13:42:50;12.30;28.70
4308;DHT22;2167;53.448;9.984;2022-11-15T13:45:17;12.30;28.50
4308;DHT22;2167;53.448;9.984;2022-11-15T13:47:55;12.40;28.80
4308;DHT22;2167;53.448;9.984;2022-11-15T13:50:29;12.50;28.40
4308;DHT22;2167;53.448;9.984;2022-11-15T13:52:59;12.50;28.10
4308;DHT22;2167;53.448;9.984;2022-11-15T13:55:27;12.60;28.00
4308;DHT22;2167;53.448;9.984;2022-11-15T13:57:58;12.60;27.80
4308;DHT22;2167;53.448;9.984;2022-11-15T14:00:42;12.50;27.90
4308;DHT22;2167;53.448;9.984;2022-11-15T14:03:19;12.50;28.00
4308;DHT22;2167;53.448;9.984;2022-11-15T14:06:12;12.50;28.10
4308;DHT22;2167;53.448;9.984;2022-11-15T14:11:25;12.50;28.80
4308;DHT22;2167;53.448;9.984;2022-11-15T14:14:12;12.50;28.80
4308;DHT22;2167;53.448;9.984;2022-11-15T14:16:45;12.50;28.70
4308;DHT22;2167;53.448;9.984;2022-11-15T14:19:34;12.50;28.90
4308;DHT22;2167;53.448;9.984;2022-11-15T14:22:18;12.50;29.00
4308;DHT22;2167;53.448;9.984;2022-11-15T14:25:30;12.50;29.20
4308;DHT22;2167;53.448;9.984;2022-11-15T14:30:39;12.50;29.30
4308;DHT22;2167;53.448;9.984;2022-11-15T14:33:32;12.50;29.30
4308;DHT22;2167;53.448;9.984;2022-11-15T14:36:02;12.50;29.40
4308;DHT22;2167;53.448;9.984;2022-11-15T14:38:28;12.50;29.40
4308;DHT22;2167;53.448;9.984;2022-11-15T14:40:54;12.40;29.40
4308;DHT22;2167;53.448;9.984;2022-11-15T14:43:21;12.40;29.50
4308;DHT22;2167;53.448;9.984;2022-11-15T14:45:47;12.40;29.60
4308;DHT22;2167;53.448;9.984;2022-11-15T14:48:12;12.30;29.70
4308;DHT22;2167;53.448;9.984;2022-11-15T14:50:39;12.30;29.80
4308;DHT22;2167;53.448;9.984;2022-11-15T14:53:05;12.30;29.80
4308;DHT22;2167;53.448;9.984;2022-11-15T14:55:35;12.30;29.80
4308;DHT22;2167;53.448;9.984;2022-11-15T14:58:02;12.20;29.80
4308;DHT22;2167;53.448;9.984;2022-11-15T15:00:29;12.20;29.70
4308;DHT22;2167;53.448;9.984;2022-11-15T15:02:55;12.10;29.70
4308;DHT22;2167;53.448;9.984;2022-11-15T15:05:24;12.10;29.70
4308;DHT22;2167;53.448;9.984;2022-11-15T15:07:50;12.00;29.70
4308;DHT22;2167;53.448;9.984;2022-11-15T15:10:19;12.00;29.80
4308;DHT22;2167;53.448;9.984;2022-11-15T15:12:45;12.00;29.80
4308;DHT22;2167;53.448;9.984;2022-11-15T15:15:24;11.90;30.00
4308;DHT22;2167;53.448;9.984;2022-11-15T15:17:50;11.80;30.00
4308;DHT22;2167;53.448;9.984;2022-11-15T15:20:16;11.80;30.00
4308;DHT22;2167;53.448;9.984;2022-11-15T15:22:42;11.80;30.20
4308;DHT22;2167;53.448;9.984;2022-11-15T15:25:26;11.80;30.30
4308;DHT22;2167;53.448;9.984;2022-11-15T15:27:52;11.70;30.00
4308;DHT22;2167;53.448;9.984;2022-11-15T15:30:18;11.60;29.70
4308;DHT22;2167;53.448;9.984;2022-11-15T15:32:44;11.60;29.40
4308;DHT22;2167;53.448;9.984;2022-11-15T15:35:13;11.50;29.90
4308;DHT22;2167;53.448;9.984;2022-11-15T15:37:40;11.40;29.70
4308;DHT22;2167;53.448;9.984;2022-11-15T15:40:16;11.40;29.30
4308;DHT22;2167;53.448;9.984;2022-11-15T15:42:43;11.30;29.10
4308;DHT22;2167;53.448;9.984;2022-11-15T15:45:09;11.20;28.90
4308;DHT22;2167;53.448;9.984;2022-11-15T15:47:35;11.10;28.70
4308;DHT22;2167;53.448;9.984;2022-11-15T15:50:01;11.00;28.60
4308;DHT22;2167;53.448;9.984;2022-11-15T15:52:27;11.00;28.50
4308;DHT22;2167;53.448;9.984;2022-11-15T15:54:52;10.90;28.80
4308;DHT22;2167;53.448;9.984;2022-11-15T15:57:18;10.80;28.80
4308;DHT22;2167;53.448;9.984;2022-11-15T15:59:44;10.80;29.30
4308;DHT22;2167;53.448;9.984;2022-11-15T16:02:13;10.70;29.70
4308;DHT22;2167;53.448;9.984;2022-11-15T16:04:39;10.70;30.20
4308;DHT22;2167;53.448;9.984;2022-11-15T16:07:05;10.60;30.80
4308;DHT22;2167;53.448;9.984;2022-11-15T16:09:30;10.60;31.50
4308;DHT22;2167;53.448;9.984;2022-11-15T16:12:15;10.60;32.10
4308;DHT22;2167;53.448;9.984;2022-11-15T16:14:42;10.60;33.00
4308;DHT22;2167;53.448;9.984;2022-11-15T16:17:18;10.60;33.50
4308;DHT22;2167;53.448;9.984;2022-11-15T16:19:45;10.60;34.00
4308;DHT22;2167;53.448;9.984;2022-11-15T16:22:11;10.60;34.30
4308;DHT22;2167;53.448;9.984;2022-11-15T16:24:37;10.60;34.60
4308;DHT22;2167;53.448;9.984;2022-11-15T16:27:02;10.70;34.80
4308;DHT22;2167;53.448;9.984;2022-11-15T16:29:28;10.60;34.90
4308;DHT22;2167;53.448;9.984;2022-11-15T16:31:54;10.70;35.00
4308;DHT22;2167;53.448;9.984;2022-11-15T16:34:19;10.60;35.00
4308;DHT22;2167;53.448;9.984;2022-11-15T16:36:45;10.70;35.10
4308;DHT22;2167;53.448;9.984;2022-11-15T16:39:11;10.70;35.20
4308;DHT22;2167;53.448;9.984;2022-11-15T16:41:39;10.70;35.30
4308;DHT22;2167;53.448;9.984;2022-11-15T16:44:05;10.70;35.50
4308;DHT22;2167;53.448;9.984;2022-11-15T16:46:30;10.70;35.30
4308;DHT22;2167;53.448;9.984;2022-11-15T16:48:56;10.70;35.30
4308;DHT22;2167;53.448;9.984;2022-11-15T16:51:22;10.70;35.20
4308;DHT22;2167;53.448;9.984;2022-11-15T16:53:48;10.70;35.20
4308;DHT22;2167;53.448;9.984;2022-11-15T16:56:25;10.70;34.90
4308;DHT22;2167;53.448;9.984;2022-11-15T16:58:52;10.60;34.90
4308;DHT22;2167;53.448;9.984;2022-11-15T17:01:35;10.50;35.00
4308;DHT22;2167;53.448;9.984;2022-11-15T17:04:02;10.60;35.10
4308;DHT22;2167;53.448;9.984;2022-11-15T17:06:41;10.60;35.70
4308;DHT22;2167;53.448;9.984;2022-11-15T17:09:25;10.60;35.90
4308;DHT22;2167;53.448;9.984;2022-11-15T17:11:51;10.60;35.60
4308;DHT22;2167;53.448;9.984;2022-11-15T17:14:17;10.60;35.50
4308;DHT22;2167;53.448;9.984;2022-11-15T17:16:43;10.60;35.60
4308;DHT22;2167;53.448;9.984;2022-11-15T17:19:13;10.60;35.50
4308;DHT22;2167;53.448;9.984;2022-11-15T17:21:39;10.60;35.50
4308;DHT22;2167;53.448;9.984;2022-11-15T17:24:06;10.50;35.80
4308;DHT22;2167;53.448;9.984;2022-11-15T17:26:32;10.50;35.80
4308;DHT22;2167;53.448;9.984;2022-11-15T17:28:57;10.50;35.90
4308;DHT22;2167;53.448;9.984;2022-11-15T17:31:25;10.50;36.00
4308;DHT22;2167;53.448;9.984;2022-11-15T17:33:51;10.40;35.80
4308;DHT22;2167;53.448;9.984;2022-11-15T17:36:17;10.50;36.10
4308;DHT22;2167;53.448;9.984;2022-11-15T17:38:42;10.50;36.00
4308;DHT22;2167;53.448;9.984;2022-11-15T17:41:13;10.50;36.20
4308;DHT22;2167;53.448;9.984;2022-11-15T17:43:38;10.40;36.00
4308;DHT22;2167;53.448;9.984;2022-11-15T17:46:06;10.40;35.90
4308;DHT22;2167;53.448;9.984;2022-11-15T17:48:32;10.40;35.80
4308;DHT22;2167;53.448;9.984;2022-11-15T17:51:00;10.40;36.00
4308;DHT22;2167;53.448;9.984;2022-11-15T17:53:26;10.40;36.00
4308;DHT22;2167;53.448;9.984;2022-11-15T17:55:52;10.30;36.10
4308;DHT22;2167;53.448;9.984;2022-11-15T17:58:18;10.30;36.30
4308;DHT22;2167;53.448;9.984;2022-11-15T18:00:45;10.30;36.40
4308;DHT22;2167;53.448;9.984;2022-11-15T18:03:12;10.40;36.60
4308;DHT22;2167;53.448;9.984;2022-11-15T18:05:37;10.40;36.60
4308;DHT22;2167;53.448;9.984;2022-11-15T18:08:03;10.40;36.80
4308;DHT22;2167;53.448;9.984;2022-11-15T18:10:29;10.40;37.00